Time;durP1;ratioP1;P1;durP2;ratioP2;P2;SDS_P1;SDS_P2;PMS_P1;PMS_P2;Temp;Humidity;BMP_temperature;BMP_pressure;BME280_temperature;BME280_humidity;BME280_pressure;Samples;Min_cycle;Max_cycle;Signal;HPM_P1;HPM_P2
2023/06/16 00:01:31;;;;;;;7.63;5.30;;;17.70;99.90;;;;;;5084507;28;20223;-59
2023/06/16 00:04:00;;;;;;;5.03;4.60;;;17.70;99.90;;;;;;5079540;28;20215;-59
2023/06/16 00:06:30;;;;;;;5.77;4.77;;;17.60;99.90;;;;;;5073777;28;20232;-59
2023/06/16 00:09:00;;;;;;;5.17;4.67;;;17.50;99.90;;;;;;5074098;28;20558;-59
2023/06/16 00:11:30;;;;;;;6.27;5.07;;;17.50;99.90;;;;;;5085931;28;20770;-59
2023/06/16 00:13:58;;;;;;;6.97;5.10;;;17.40;99.90;;;;;;5090897;28;20219;-60
2023/06/16 00:16:27;;;;;;;5.50;5.00;;;17.30;99.90;;;;;;5085556;28;20253;-59
2023/06/16 00:18:57;;;;;;;8.70;5.03;;;17.30;99.90;;;;;;5085152;28;20224;-60
2023/06/16 00:21:27;;;;;;;5.17;4.77;;;17.30;99.90;;;;;;5087703;28;20262;-59
2023/06/16 00:23:57;;;;;;;5.17;4.57;;;17.20;99.90;;;;;;5093062;28;20195;-59
2023/06/16 00:26:26;;;;;;;6.17;5.57;;;17.20;99.90;;;;;;5092564;28;20221;-59
2023/06/16 00:28:55;;;;;;;5.40;4.80;;;17.10;99.90;;;;;;5077352;28;20240;-59
2023/06/16 00:31:25;;;;;;;6.43;4.90;;;17.10;99.90;;;;;;5066560;28;20316;-59
2023/06/16 00:33:53;;;;;;;8.13;4.40;;;17.10;99.90;;;;;;5078542;28;20226;-59
2023/06/16 00:36:22;;;;;;;5.73;4.23;;;17.00;99.90;;;;;;5084987;28;20188;-59
2023/06/16 00:38:50;;;;;;;10.93;5.87;;;16.90;99.90;;;;;;5082480;28;20525;-59
2023/06/16 00:41:20;;;;;;;8.50;5.47;;;16.90;99.90;;;;;;5085220;28;20226;-60
2023/06/16 00:43:48;;;;;;;5.50;4.93;;;16.90;99.90;;;;;;5091586;28;20571;-59
2023/06/16 00:46:26;;;;;;;5.73;5.23;;;16.90;99.90;;;;;;5077125;28;20225;-60
2023/06/16 00:48:54;;;;;;;5.03;4.67;;;16.90;99.90;;;;;;5071440;28;20549;-59
2023/06/16 00:51:25;;;;;;;5.07;4.60;;;16.80;99.90;;;;;;5092701;28;20648;-59
2023/06/16 00:53:54;;;;;;;5.97;4.90;;;16.80;99.90;;;;;;5091269;28;20645;-59
2023/06/16 00:56:25;;;;;;;5.07;4.63;;;16.80;99.90;;;;;;5082942;28;20251;-59
2023/06/16 00:58:54;;;;;;;8.03;4.80;;;16.70;99.90;;;;;;5087462;28;20681;-59
2023/06/16 01:01:24;;;;;;;6.97;5.57;;;16.60;99.90;;;;;;5083480;28;20228;-59
2023/06/16 01:03:53;;;;;;;8.40;5.63;;;16.50;99.90;;;;;;5078187;28;20751;-59
2023/06/16 01:06:36;;;;;;;5.60;5.13;;;16.50;99.90;;;;;;5078626;28;20192;-59
2023/06/16 01:09:12;;;;;;;6.70;5.33;;;16.40;99.90;;;;;;5093460;28;20202;-60
2023/06/16 01:11:47;;;;;;;6.67;5.23;;;16.40;99.90;;;;;;5073841;28;20222;-59
2023/06/16 01:14:22;;;;;;;7.27;5.67;;;16.40;99.90;;;;;;5079461;28;20222;-60
2023/06/16 01:16:53;;;;;;;10.03;5.40;;;16.40;99.90;;;;;;5073001;28;20256;-60
2023/06/16 01:19:29;;;;;;;7.43;5.77;;;16.40;99.90;;;;;;5087541;28;20216;-60
2023/06/16 01:22:05;;;;;;;7.50;5.03;;;16.30;99.90;;;;;;5087596;28;20650;-59
2023/06/16 01:24:36;;;;;;;8.20;5.50;;;16.30;99.90;;;;;;5081807;28;20211;-59
2023/06/16 01:27:08;;;;;;;5.90;5.33;;;16.30;99.90;;;;;;5072335;28;20220;-60
2023/06/16 01:29:37;;;;;;;7.43;5.40;;;16.20;99.90;;;;;;5061922;28;20581;-60
2023/06/16 01:32:08;;;;;;;5.97;5.37;;;16.20;99.90;;;;;;5082708;28;20231;-59
2023/06/16 01:34:36;;;;;;;8.17;5.53;;;16.10;99.90;;;;;;5082543;28;20709;-59
2023/06/16 01:37:06;;;;;;;7.77;5.90;;;16.10;99.90;;;;;;5090521;28;20232;-59
2023/06/16 01:39:37;;;;;;;6.27;5.70;;;16.00;99.90;;;;;;5075651;28;20216;-60
2023/06/16 01:42:08;;;;;;;10.83;5.70;;;16.00;99.90;;;;;;5071014;28;20192;-61
2023/06/16 01:44:38;;;;;;;7.80;5.87;;;16.00;99.90;;;;;;5071073;28;20228;-59
2023/06/16 01:47:07;;;;;;;6.80;5.60;;;15.90;99.90;;;;;;5083037;28;20229;-60
2023/06/16 01:49:37;;;;;;;6.73;5.83;;;15.90;99.90;;;;;;5092206;28;20302;-60
2023/06/16 01:52:06;;;;;;;5.90;5.30;;;15.80;99.90;;;;;;5086594;28;20231;-59
2023/06/16 01:54:37;;;;;;;6.17;5.57;;;15.80;99.90;;;;;;5072667;28;20226;-59
2023/06/16 01:57:05;;;;;;;7.33;6.33;;;15.70;99.90;;;;;;5078000;28;20202;-60
2023/06/16 01:59:34;;;;;;;6.43;5.83;;;15.60;99.90;;;;;;5089557;28;20647;-59
2023/06/16 02:02:11;;;;;;;7.20;6.40;;;15.60;99.90;;;;;;5091947;28;20227;-59
2023/06/16 02:04:44;;;;;;;7.73;6.50;;;15.60;99.90;;;;;;5080150;28;20232;-60
2023/06/16 02:07:15;;;;;;;10.47;6.53;;;15.60;99.90;;;;;;5072547;28;20219;-60
2023/06/16 02:09:46;;;;;;;7.23;6.53;;;15.60;99.90;;;;;;5073821;28;20722;-60
2023/06/16 02:12:15;;;;;;;11.07;6.93;;;15.60;99.90;;;;;;5074324;28;20276;-59
2023/06/16 02:14:45;;;;;;;7.33;6.43;;;15.60;99.90;;;;;;5088795;28;20206;-60
2023/06/16 02:17:13;;;;;;;9.47;6.73;;;15.60;99.90;;;;;;5082123;28;20259;-60
2023/06/16 02:19:43;;;;;;;6.70;5.97;;;15.60;99.90;;;;;;5089640;28;20228;-60
2023/06/16 02:22:11;;;;;;;6.93;6.30;;;15.60;99.90;;;;;;5091801;28;20216;-60
2023/06/16 02:24:40;;;;;;;8.77;6.50;;;15.50;99.90;;;;;;5089828;28;20579;-59
2023/06/16 02:27:10;;;;;;;7.80;7.00;;;15.40;99.90;;;;;;5096185;28;20541;-59
2023/06/16 02:29:38;;;;;;;7.77;7.00;;;15.40;99.90;;;;;;5077145;28;20206;-60
2023/06/16 02:32:07;;;;;;;9.13;6.80;;;15.40;99.90;;;;;;5092187;28;20242;-60
2023/06/16 02:34:36;;;;;;;7.77;7.07;;;15.30;99.90;;;;;;5067081;28;20238;-60
2023/06/16 02:37:04;;;;;;;8.40;7.50;;;15.30;99.90;;;;;;5078894;28;20211;-60
2023/06/16 02:39:33;;;;;;;11.00;7.33;;;15.30;99.90;;;;;;5075958;28;20251;-59
2023/06/16 02:42:01;;;;;;;8.17;7.00;;;15.30;99.90;;;;;;5096191;28;20697;-59
2023/06/16 02:44:31;;;;;;;7.90;7.10;;;15.30;99.90;;;;;;5092999;28;20215;-60
2023/06/16 02:47:00;;;;;;;7.80;6.37;;;15.30;99.90;;;;;;5094645;28;20220;-60
2023/06/16 02:49:30;;;;;;;9.77;7.53;;;15.30;99.90;;;;;;5094401;28;20231;-60
2023/06/16 02:51:59;;;;;;;11.07;7.73;;;15.30;99.90;;;;;;5095614;28;20241;-59
2023/06/16 02:54:27;;;;;;;9.93;8.17;;;15.30;99.90;;;;;;5077706;28;20196;-59
2023/06/16 02:56:56;;;;;;;11.67;8.73;;;15.30;99.90;;;;;;5092115;28;20232;-60
2023/06/16 02:59:24;;;;;;;9.30;8.40;;;15.30;99.90;;;;;;5092379;28;20248;-60
2023/06/16 03:01:54;;;;;;;10.90;8.73;;;15.30;99.90;;;;;;5081810;28;20216;-60
2023/06/16 03:04:22;;;;;;;9.80;8.80;;;15.20;99.90;;;;;;5087690;28;20216;-60
2023/06/16 03:06:51;;;;;;;11.77;9.30;;;15.20;99.90;;;;;;5082916;28;20660;-59
2023/06/16 03:09:21;;;;;;;13.20;8.80;;;15.20;99.90;;;;;;5095168;28;20288;-59
2023/06/16 03:11:49;;;;;;;12.63;9.87;;;15.10;99.90;;;;;;5086611;28;20195;-60
2023/06/16 03:14:22;;;;;;;10.37;9.27;;;15.20;99.90;;;;;;5086156;28;20223;-60
2023/06/16 03:16:50;;;;;;;11.03;9.73;;;15.10;99.90;;;;;;5092829;28;20216;-60
2023/06/16 03:19:20;;;;;;;11.47;10.27;;;15.10;99.90;;;;;;5095281;28;20228;-60
2023/06/16 03:21:50;;;;;;;13.37;10.03;;;15.10;99.90;;;;;;5087508;28;20230;-60
2023/06/16 03:24:19;;;;;;;12.20;9.47;;;15.10;99.90;;;;;;5090239;28;20244;-59
2023/06/16 03:26:47;;;;;;;14.03;10.17;;;15.10;99.90;;;;;;5084204;28;20750;-60
2023/06/16 03:29:16;;;;;;;10.47;9.37;;;15.10;99.90;;;;;;5093971;28;20227;-60
2023/06/16 03:31:44;;;;;;;14.63;9.73;;;15.00;99.90;;;;;;5086416;28;20225;-59
2023/06/16 03:34:12;;;;;;;16.40;10.37;;;15.00;99.90;;;;;;5086120;28;20227;-60
2023/06/16 03:36:53;;;;;;;12.40;10.87;;;15.00;99.90;;;;;;5085320;28;20246;-60
2023/06/16 03:39:22;;;;;;;13.33;10.93;;;14.90;99.90;;;;;;5068049;28;20181;-60
2023/06/16 03:41:53;;;;;;;14.57;10.37;;;14.90;99.90;;;;;;5063273;28;20539;-60
2023/06/16 03:45:01;;;;;;;13.43;11.17;;;14.90;99.90;;;;;;5066809;28;20221;-59
2023/06/16 03:47:30;;;;;;;17.30;12.13;;;14.90;99.90;;;;;;5071576;28;20221;-60
2023/06/16 03:50:00;;;;;;;17.83;11.30;;;14.90;99.90;;;;;;5089270;28;20235;-60
2023/06/16 03:52:29;;;;;;;14.43;11.20;;;14.90;99.90;;;;;;5083619;28;20244;-60
2023/06/16 03:54:58;;;;;;;15.27;11.17;;;14.80;99.90;;;;;;5089356;28;20219;-60
2023/06/16 03:57:26;;;;;;;15.13;12.13;;;14.90;99.90;;;;;;5073972;28;20212;-59
2023/06/16 03:59:54;;;;;;;16.63;12.00;;;14.90;99.90;;;;;;5079916;28;20196;-60
2023/06/16 04:02:23;;;;;;;15.60;12.47;;;14.90;99.90;;;;;;5078012;28;20223;-59
2023/06/16 04:04:52;;;;;;;18.30;13.80;;;14.90;99.90;;;;;;5092613;28;20744;-60
2023/06/16 04:07:20;;;;;;;15.30;13.60;;;14.90;99.90;;;;;;5082540;28;20220;-59
2023/06/16 04:09:50;;;;;;;18.40;14.77;;;14.90;99.90;;;;;;5083534;28;20220;-59
2023/06/16 04:12:18;;;;;;;23.07;14.67;;;14.90;99.90;;;;;;5093055;28;20188;-59
2023/06/16 04:14:46;;;;;;;19.43;15.57;;;15.00;99.90;;;;;;5091471;28;20245;-59
2023/06/16 04:17:15;;;;;;;25.57;15.77;;;15.00;99.90;;;;;;5073169;28;20220;-60
2023/06/16 04:19:45;;;;;;;25.23;15.97;;;15.10;99.90;;;;;;5085907;28;20216;-60
2023/06/16 04:22:14;;;;;;;18.20;15.17;;;15.20;99.90;;;;;;5092509;28;20318;-59
2023/06/16 04:24:43;;;;;;;21.60;16.60;;;15.30;99.90;;;;;;5091088;28;20226;-59
2023/06/16 04:27:12;;;;;;;21.93;16.90;;;15.40;99.90;;;;;;5085678;28;20195;-59
2023/06/16 04:29:42;;;;;;;22.70;16.53;;;15.50;99.90;;;;;;5093868;28;20189;-60
2023/06/16 04:32:13;;;;;;;23.83;16.77;;;15.50;99.90;;;;;;5095054;28;20211;-60
2023/06/16 04:34:42;;;;;;;24.87;15.97;;;15.60;99.90;;;;;;5084247;28;20224;-60
2023/06/16 04:37:11;;;;;;;23.40;16.63;;;15.70;99.90;;;;;;5085476;28;20319;-59
2023/06/16 04:39:41;;;;;;;25.73;17.93;;;15.70;99.90;;;;;;5089400;28;20243;-59
2023/06/16 04:42:10;;;;;;;23.07;17.23;;;15.80;99.90;;;;;;5094163;28;20212;-59
2023/06/16 04:44:40;;;;;;;23.60;19.17;;;15.90;99.90;;;;;;5074947;28;20655;-60
2023/06/16 04:47:09;;;;;;;28.60;20.57;;;16.00;99.90;;;;;;5078009;28;20223;-60
2023/06/16 04:49:37;;;;;;;28.33;18.77;;;16.10;99.90;;;;;;5072912;28;20243;-60
2023/06/16 04:52:07;;;;;;;23.73;18.70;;;16.10;99.90;;;;;;5073586;28;20589;-60
2023/06/16 04:54:36;;;;;;;22.80;17.27;;;16.20;99.90;;;;;;5075070;28;20598;-60
2023/06/16 04:57:06;;;;;;;25.07;18.87;;;16.30;99.90;;;;;;5073447;28;20193;-60
2023/06/16 04:59:35;;;;;;;29.77;19.20;;;16.40;99.90;;;;;;5086689;28;20236;-60
2023/06/16 05:02:05;;;;;;;24.27;17.47;;;16.40;99.90;;;;;;5085578;28;20220;-60
2023/06/16 05:04:34;;;;;;;27.77;19.00;;;16.40;99.90;;;;;;5092661;28;20239;-60
2023/06/16 05:07:03;;;;;;;37.13;20.37;;;16.50;99.90;;;;;;5093045;28;20219;-60
2023/06/16 05:09:32;;;;;;;28.73;19.57;;;16.50;99.90;;;;;;5083983;28;20275;-60
2023/06/16 05:12:00;;;;;;;24.83;19.27;;;16.50;99.90;;;;;;5084023;28;20190;-60
2023/06/16 05:14:28;;;;;;;27.37;19.53;;;16.60;99.90;;;;;;5083441;28;20258;-60
2023/06/16 05:16:57;;;;;;;24.43;18.87;;;16.60;99.90;;;;;;5078163;28;20223;-60
2023/06/16 05:19:27;;;;;;;30.17;19.57;;;16.60;99.90;;;;;;5092860;28;20270;-60
2023/06/16 05:21:55;;;;;;;28.83;18.13;;;16.60;99.90;;;;;;5092504;28;20229;-60
2023/06/16 05:24:23;;;;;;;24.57;19.23;;;16.70;99.90;;;;;;5080831;28;20183;-60
2023/06/16 05:26:52;;;;;;;27.07;19.37;;;16.80;99.90;;;;;;5088980;28;20225;-60
2023/06/16 05:29:20;;;;;;;24.60;19.70;;;16.90;99.90;;;;;;5091090;28;20317;-60
2023/06/16 05:31:49;;;;;;;29.00;20.37;;;17.00;99.90;;;;;;5089168;28;20219;-60
2023/06/16 05:34:17;;;;;;;24.60;19.00;;;17.10;99.90;;;;;;5092200;28;20718;-60
2023/06/16 05:36:46;;;;;;;24.73;19.37;;;17.20;99.90;;;;;;5083033;28;20234;-60
2023/06/16 05:39:15;;;;;;;24.77;18.97;;;17.20;99.90;;;;;;5090836;28;20661;-60
2023/06/16 05:41:44;;;;;;;27.70;19.50;;;17.30;99.90;;;;;;5079124;28;20538;-60
2023/06/16 05:44:12;;;;;;;27.93;19.37;;;17.40;99.90;;;;;;5083056;28;20217;-60
2023/06/16 05:46:41;;;;;;;21.30;18.00;;;17.50;99.90;;;;;;5079308;28;20215;-60
2023/06/16 05:49:09;;;;;;;25.40;18.70;;;17.60;99.90;;;;;;5089303;28;20234;-60
2023/06/16 05:51:37;;;;;;;24.43;18.10;;;17.70;99.90;;;;;;5081108;28;20216;-60
2023/06/16 05:54:07;;;;;;;28.20;16.50;;;17.80;99.90;;;;;;5070434;28;20192;-60
2023/06/16 05:56:35;;;;;;;26.77;18.93;;;17.90;99.90;;;;;;5062009;28;20220;-60
2023/06/16 05:59:03;;;;;;;21.07;17.57;;;17.90;99.90;;;;;;5086777;28;20222;-60
2023/06/16 06:01:32;;;;;;;21.50;16.87;;;18.00;99.90;;;;;;5087592;28;20700;-60
2023/06/16 06:04:00;;;;;;;26.37;17.43;;;18.10;99.90;;;;;;5083623;28;20224;-60
2023/06/16 06:06:29;;;;;;;19.70;15.00;;;18.20;99.90;;;;;;5076241;28;20277;-61
2023/06/16 06:08:57;;;;;;;19.37;15.70;;;18.20;99.90;;;;;;5073582;28;20196;-60
2023/06/16 06:11:27;;;;;;;25.07;15.67;;;18.30;99.90;;;;;;5082308;28;20217;-60
2023/06/16 06:13:55;;;;;;;18.97;16.63;;;18.40;99.90;;;;;;5088508;28;20291;-60
2023/06/16 06:16:23;;;;;;;18.57;15.70;;;18.50;99.90;;;;;;5074571;28;20728;-60
2023/06/16 06:18:52;;;;;;;20.17;14.93;;;18.60;99.90;;;;;;5091630;28;20705;-60
2023/06/16 06:21:20;;;;;;;24.57;15.03;;;18.70;99.90;;;;;;5085542;28;20249;-60
2023/06/16 06:23:49;;;;;;;22.57;14.90;;;18.80;99.90;;;;;;5094766;28;20202;-60
2023/06/16 06:26:17;;;;;;;22.10;14.80;;;19.00;99.90;;;;;;5094289;28;20215;-60
2023/06/16 06:28:47;;;;;;;23.37;15.40;;;19.20;99.90;;;;;;5094237;28;20239;-60
2023/06/16 06:31:16;;;;;;;24.27;15.70;;;19.50;99.90;;;;;;5094032;28;20730;-60
2023/06/16 06:33:45;;;;;;;24.37;15.17;;;19.60;99.90;;;;;;5096159;28;20211;-60
2023/06/16 06:36:20;;;;;;;19.23;14.60;;;19.70;99.90;;;;;;5088862;28;20187;-60
2023/06/16 06:38:49;;;;;;;20.48;14.82;;;19.80;99.90;;;;;;5087869;28;20434;-60
2023/06/16 06:41:18;;;;;;;20.13;13.97;;;19.90;99.90;;;;;;5086226;28;20211;-60
2023/06/16 06:43:48;;;;;;;17.77;13.37;;;20.00;99.90;;;;;;5085079;28;20240;-61
2023/06/16 06:46:17;;;;;;;18.23;14.10;;;20.10;99.90;;;;;;5087978;28;20226;-61
2023/06/16 06:48:45;;;;;;;23.37;14.27;;;20.20;99.90;;;;;;5088033;28;20234;-61
2023/06/16 06:51:14;;;;;;;23.10;13.77;;;20.30;99.90;;;;;;5080386;28;20199;-60
2023/06/16 06:53:44;;;;;;;20.37;12.93;;;20.60;99.90;;;;;;5082363;28;20192;-61
2023/06/16 06:56:12;;;;;;;18.33;13.63;;;20.70;99.90;;;;;;5090728;28;20262;-61
2023/06/16 06:58:40;;;;;;;19.70;13.33;;;20.80;99.90;;;;;;5086352;28;20223;-60
2023/06/16 07:01:10;;;;;;;16.10;12.80;;;20.80;99.90;;;;;;5078246;28;20228;-60
2023/06/16 07:03:39;;;;;;;15.90;12.40;;;20.80;99.90;;;;;;5082991;28;20597;-61
2023/06/16 07:06:07;;;;;;;21.53;12.43;;;20.90;99.90;;;;;;5070444;28;20193;-61
2023/06/16 07:08:36;;;;;;;15.20;12.67;;;21.00;99.90;;;;;;5092618;28;20215;-60
2023/06/16 07:11:04;;;;;;;17.03;12.57;;;21.10;99.90;;;;;;5076046;28;20235;-61
2023/06/16 07:13:33;;;;;;;20.07;12.17;;;21.20;99.90;;;;;;5084473;28;20218;-60
2023/06/16 07:16:03;;;;;;;14.90;11.03;;;21.30;99.90;;;;;;5094639;28;20215;-60
2023/06/16 07:18:33;;;;;;;17.93;11.97;;;21.30;99.90;;;;;;5094253;28;20420;-60
2023/06/16 07:21:01;;;;;;;19.10;11.23;;;21.50;99.90;;;;;;5093807;28;20208;-59
2023/06/16 07:23:30;;;;;;;14.03;10.10;;;21.50;99.90;;;;;;5092535;28;20704;-61
2023/06/16 07:25:58;;;;;;;14.60;9.77;;;21.60;99.90;;;;;;5091021;28;20617;-60
2023/06/16 07:28:27;;;;;;;19.23;9.93;;;21.70;99.90;;;;;;5081494;28;20634;-60
2023/06/16 07:30:55;;;;;;;14.33;10.03;;;21.90;99.90;;;;;;5074358;28;20777;-61
2023/06/16 07:33:24;;;;;;;14.47;8.83;;;22.20;99.90;;;;;;5087367;28;20200;-60
2023/06/16 07:35:54;;;;;;;16.30;9.57;;;22.30;99.90;;;;;;5089076;28;20572;-60
2023/06/16 07:38:23;;;;;;;19.17;9.17;;;22.30;99.90;;;;;;5085143;28;20742;-60
2023/06/16 07:40:51;;;;;;;14.93;8.90;;;22.40;99.90;;;;;;5073482;28;20673;-60
2023/06/16 07:43:21;;;;;;;10.80;8.30;;;22.50;99.90;;;;;;5075683;28;20224;-61
2023/06/16 07:45:51;;;;;;;12.67;9.80;;;22.50;99.90;;;;;;5093275;28;20215;-60
2023/06/16 07:48:19;;;;;;;15.60;9.07;;;22.60;99.90;;;;;;5093988;28;20218;-60
2023/06/16 07:50:47;;;;;;;15.80;9.60;;;22.80;99.90;;;;;;5094173;28;20554;-60
2023/06/16 07:53:17;;;;;;;17.07;8.70;;;22.90;99.90;;;;;;5090416;28;20563;-61
2023/06/16 07:55:45;;;;;;;10.10;8.87;;;23.00;99.90;;;;;;5087022;28;20219;-61
2023/06/16 07:58:14;;;;;;;11.47;7.80;;;23.10;99.90;;;;;;5093489;28;20225;-60
2023/06/16 08:00:42;;;;;;;17.50;9.20;;;23.20;99.90;;;;;;5085402;28;20219;-60
2023/06/16 08:03:11;;;;;;;12.03;8.43;;;23.20;99.90;;;;;;5088631;28;20195;-60
2023/06/16 08:05:40;;;;;;;9.40;8.50;;;23.30;99.90;;;;;;5094014;28;20218;-61
2023/06/16 08:08:09;;;;;;;13.33;8.63;;;23.30;99.90;;;;;;5093090;28;20562;-61
2023/06/16 08:10:38;;;;;;;12.77;8.23;;;23.40;99.90;;;;;;5092499;28;20314;-60
2023/06/16 08:13:06;;;;;;;11.87;8.27;;;23.50;99.90;;;;;;5078087;28;20586;-60
2023/06/16 08:15:35;;;;;;;12.93;8.57;;;23.60;99.90;;;;;;5089945;28;20226;-60
2023/06/16 08:18:03;;;;;;;14.17;8.60;;;23.70;99.90;;;;;;5088861;28;20192;-61
2023/06/16 08:20:32;;;;;;;12.97;9.10;;;23.70;99.90;;;;;;5091617;28;20242;-60
2023/06/16 08:23:01;;;;;;;12.40;8.33;;;23.90;99.90;;;;;;5085315;28;20618;-60
2023/06/16 08:25:29;;;;;;;17.97;8.97;;;24.00;99.90;;;;;;5090429;28;20320;-61
2023/06/16 08:28:00;;;;;;;15.67;9.17;;;24.20;99.90;;;;;;5091755;28;20213;-61
2023/06/16 08:30:28;;;;;;;11.77;8.60;;;24.40;99.90;;;;;;5088443;28;20229;-61
2023/06/16 08:32:56;;;;;;;12.47;8.93;;;24.50;99.90;;;;;;5088453;28;20575;-61
2023/06/16 08:35:25;;;;;;;21.40;8.93;;;24.60;99.90;;;;;;5086910;28;20227;-61
2023/06/16 08:37:53;;;;;;;13.13;9.07;;;24.70;99.90;;;;;;5085791;28;20218;-60
2023/06/16 08:40:21;;;;;;;11.97;8.10;;;24.60;99.90;;;;;;5091392;28;20228;-60
2023/06/16 08:42:51;;;;;;;14.97;8.57;;;24.60;99.90;;;;;;5078573;28;20214;-60
2023/06/16 08:45:23;;;;;;;11.90;8.20;;;24.70;99.90;;;;;;5090632;28;20597;-60
2023/06/16 08:47:51;;;;;;;15.00;8.03;;;24.90;99.90;;;;;;5089462;28;20195;-61
2023/06/16 08:50:23;;;;;;;11.10;6.97;;;25.10;99.90;;;;;;5088195;28;20218;-61
2023/06/16 08:52:53;;;;;;;13.37;8.90;;;25.20;99.90;;;;;;5087393;28;20223;-61
2023/06/16 08:55:25;;;;;;;9.13;8.07;;;25.40;99.90;;;;;;5087311;28;21008;-61
2023/06/16 08:57:56;;;;;;;9.87;7.97;;;25.30;99.90;;;;;;5088542;28;20310;-61
2023/06/16 09:00:27;;;;;;;11.33;7.63;;;25.40;99.90;;;;;;5085800;28;20195;-61
2023/06/16 09:02:56;;;;;;;10.30;7.10;;;25.50;99.90;;;;;;5089241;28;20196;-61
2023/06/16 09:05:26;;;;;;;13.60;8.27;;;25.70;99.90;;;;;;5086358;28;20566;-61
2023/06/16 09:08:14;;;;;;;9.60;7.40;;;25.80;99.90;;;;;;5091006;28;21410;-61
2023/06/16 09:10:42;;;;;;;10.87;8.40;;;26.00;99.90;;;;;;5090430;28;20215;-61
2023/06/16 09:13:16;;;;;;;13.10;7.07;;;25.90;99.90;;;;;;5086476;28;20577;-61
2023/06/16 09:15:47;;;;;;;9.37;6.93;;;25.80;99.90;;;;;;5087785;28;20855;-61
2023/06/16 09:18:15;;;;;;;10.00;6.73;;;25.90;99.90;;;;;;5085955;28;20199;-61
2023/06/16 09:20:44;;;;;;;8.23;5.97;;;26.20;99.90;;;;;;5093425;28;20218;-61
2023/06/16 09:23:14;;;;;;;8.60;6.93;;;26.40;99.90;;;;;;5086687;28;20231;-61
2023/06/16 09:25:42;;;;;;;6.00;5.47;;;26.60;99.90;;;;;;5092592;28;20227;-61
2023/06/16 09:28:10;;;;;;;7.17;5.27;;;26.80;99.90;;;;;;5079826;28;20217;-61
2023/06/16 09:30:39;;;;;;;10.30;6.27;;;26.90;99.90;;;;;;5067719;28;20224;-61
2023/06/16 09:33:13;;;;;;;6.73;5.90;;;27.00;99.90;;;;;;5086903;28;20184;-60
2023/06/16 09:35:44;;;;;;;8.10;6.10;;;27.20;99.90;;;;;;5087711;28;20654;-61
2023/06/16 09:38:12;;;;;;;9.20;5.60;;;27.30;99.90;;;;;;5085536;28;20590;-61
2023/06/16 09:40:40;;;;;;;9.32;6.13;;;27.60;99.90;;;;;;5088118;28;20215;-61
2023/06/16 09:43:10;;;;;;;6.07;5.50;;;27.80;99.90;;;;;;5087496;28;20225;-61
2023/06/16 09:45:38;;;;;;;7.18;5.45;;;28.00;99.90;;;;;;5078688;28;20250;-61
2023/06/16 09:48:08;;;;;;;8.43;5.88;;;28.10;99.90;;;;;;5088061;28;20280;-61
2023/06/16 09:50:40;;;;;;;8.48;5.63;;;28.10;99.90;;;;;;5083912;28;20218;-61
2023/06/16 09:53:10;;;;;;;8.27;6.25;;;28.10;99.90;;;;;;5086862;28;20234;-61
2023/06/16 09:55:40;;;;;;;6.80;4.95;;;28.00;99.90;;;;;;5082250;28;20228;-61
2023/06/16 09:58:10;;;;;;;10.48;6.63;;;28.10;99.90;;;;;;5088056;28;20303;-61
2023/06/16 10:00:38;;;;;;;9.60;5.40;;;28.00;99.90;;;;;;5083569;28;20299;-61
2023/06/16 10:03:09;;;;;;;10.13;5.93;;;28.00;99.90;;;;;;5090364;28;20216;-61
2023/06/16 10:05:42;;;;;;;7.85;5.97;;;27.90;99.90;;;;;;5089295;28;20216;-61
2023/06/16 10:08:14;;;;;;;8.50;5.40;;;28.00;99.90;;;;;;5131304;28;20213;-61
2023/06/16 10:10:45;;;;;;;5.43;4.82;;;28.00;99.90;;;;;;5119475;28;20227;-61
2023/06/16 10:13:14;;;;;;;9.63;5.15;;;28.20;99.90;;;;;;5116865;28;20212;-61
2023/06/16 10:15:45;;;;;;;5.78;5.05;;;28.30;99.90;;;;;;5103409;28;20578;-61
2023/06/16 10:18:17;;;;;;;9.82;5.78;;;28.70;99.90;;;;;;5108918;28;20188;-61
2023/06/16 10:20:48;;;;;;;7.50;5.15;;;28.70;99.90;;;;;;5108360;28;20221;-61
2023/06/16 10:23:17;;;;;;;6.15;4.78;;;28.70;99.90;;;;;;5110278;28;20216;-61
2023/06/16 10:25:46;;;;;;;5.97;4.53;;;28.70;99.90;;;;;;5106691;28;20223;-61
2023/06/16 10:28:16;;;;;;;6.30;4.22;;;28.90;99.90;;;;;;5107782;28;20709;-61
2023/06/16 10:30:44;;;;;;;7.85;3.92;;;29.00;99.90;;;;;;5125320;28;20224;-61
2023/06/16 10:33:18;;;;;;;3.92;3.72;;;29.30;99.90;;;;;;5121445;28;20212;-60
2023/06/16 10:35:52;;;;;;;5.68;3.97;;;29.20;99.40;;;;;;5117873;28;20235;-61
2023/06/16 10:38:35;;;;;;;3.95;3.75;;;29.40;99.50;;;;;;5087053;28;20244;-61
2023/06/16 10:41:06;;;;;;;4.40;4.18;;;29.40;99.10;;;;;;5115841;27;20672;-61
2023/06/16 10:43:34;;;;;;;5.22;3.90;;;29.30;97.90;;;;;;5117923;27;20221;-61
2023/06/16 10:46:20;;;;;;;5.18;4.10;;;29.40;97.70;;;;;;5113863;28;20225;-63
2023/06/16 10:49:10;;;;;;;5.03;3.88;;;29.60;99.00;;;;;;5095974;28;20625;-60
2023/06/16 10:51:45;;;;;;;5.18;3.80;;;29.70;99.40;;;;;;5109969;27;20224;-60
2023/06/16 10:54:14;;;;;;;6.72;4.05;;;29.70;99.00;;;;;;5113935;27;20203;-60
2023/06/16 10:57:01;;;;;;;8.18;4.13;;;29.50;98.30;;;;;;5139250;27;20284;-61
2023/06/16 10:59:55;;;;;;;5.70;3.90;;;29.50;98.70;;;;;;5110271;28;20565;-61
2023/06/16 11:02:26;;;;;;;4.72;4.00;;;29.60;98.40;;;;;;5113260;28;20229;-61
2023/06/16 11:05:14;;;;;;;6.43;3.83;;;29.70;97.00;;;;;;5108838;27;20207;-61
2023/06/16 11:07:46;;;;;;;4.10;3.75;;;29.60;97.60;;;;;;5123954;27;20228;-61
2023/06/16 11:10:20;;;;;;;4.65;4.20;;;29.60;97.70;;;;;;5123832;27;20210;-61
2023/06/16 11:12:49;;;;;;;4.15;3.85;;;29.60;96.60;;;;;;5125291;27;20228;-61
2023/06/16 11:15:19;;;;;;;5.35;3.92;;;29.60;96.60;;;;;;5135033;27;20224;-60
2023/06/16 11:17:48;;;;;;;3.97;3.60;;;29.60;97.40;;;;;;5132913;27;20196;-61
2023/06/16 11:20:17;;;;;;;3.60;3.40;;;29.60;98.30;;;;;;5128191;27;20683;-61
2023/06/16 11:22:49;;;;;;;4.30;3.80;;;30.20;98.10;;;;;;5129329;27;20229;-61
2023/06/16 11:25:17;;;;;;;3.67;3.38;;;30.50;97.80;;;;;;5128309;27;20218;-61
2023/06/16 11:27:47;;;;;;;4.70;4.30;;;30.50;96.30;;;;;;5128632;27;20244;-61
2023/06/16 11:30:17;;;;;;;4.97;3.65;;;30.40;94.90;;;;;;5111482;28;20567;-61
2023/06/16 11:32:48;;;;;;;3.95;3.58;;;30.30;96.20;;;;;;5096764;28;20507;-61
2023/06/16 11:35:17;;;;;;;5.32;3.92;;;30.40;95.90;;;;;;5124836;27;20215;-61
2023/06/16 11:37:50;;;;;;;4.93;4.07;;;30.30;95.00;;;;;;5130198;27;20229;-61
2023/06/16 11:40:20;;;;;;;5.00;3.78;;;30.30;94.80;;;;;;5135004;27;20611;-61
2023/06/16 11:42:57;;;;;;;4.10;3.80;;;30.30;95.70;;;;;;5132539;27;20257;-61
2023/06/16 11:45:28;;;;;;;5.65;4.20;;;30.30;95.30;;;;;;5118102;27;20227;-61
2023/06/16 11:47:57;;;;;;;5.35;3.80;;;30.50;93.90;;;;;;5128618;27;20193;-61
2023/06/16 11:50:26;;;;;;;4.22;3.92;;;30.60;96.10;;;;;;5118921;27;20683;-61
2023/06/16 11:52:56;;;;;;;4.40;3.92;;;30.60;96.60;;;;;;5120656;27;20227;-61
2023/06/16 11:55:25;;;;;;;4.72;4.13;;;30.40;95.70;;;;;;5135320;27;20246;-61
2023/06/16 11:57:57;;;;;;;6.85;4.13;;;30.10;96.60;;;;;;5125342;27;20231;-61
2023/06/16 12:00:27;;;;;;;4.15;3.88;;;30.20;95.30;;;;;;5126305;27;20201;-61
2023/06/16 12:02:56;;;;;;;5.30;4.40;;;30.40;93.50;;;;;;5113724;28;20240;-61
2023/06/16 12:05:27;;;;;;;7.07;4.50;;;30.40;94.20;;;;;;5131700;27;20220;-61
2023/06/16 12:07:57;;;;;;;4.45;4.05;;;30.20;92.60;;;;;;5131271;27;20272;-61
2023/06/16 12:10:26;;;;;;;5.35;4.25;;;30.10;95.40;;;;;;5129512;27;20228;-61
2023/06/16 12:12:55;;;;;;;5.32;4.45;;;30.20;95.20;;;;;;5126996;27;20318;-61
2023/06/16 12:15:24;;;;;;;5.80;4.03;;;30.30;92.50;;;;;;5132552;27;20201;-60
2023/06/16 12:17:56;;;;;;;4.40;3.80;;;30.10;94.30;;;;;;5128738;27;20295;-61
2023/06/16 12:20:25;;;;;;;4.47;4.07;;;30.30;95.80;;;;;;5132311;27;20270;-61
2023/06/16 12:22:57;;;;;;;4.68;4.25;;;30.40;93.70;;;;;;5134904;27;20221;-61
2023/06/16 12:25:26;;;;;;;4.32;3.92;;;30.40;95.20;;;;;;5132385;27;20226;-61
2023/06/16 12:27:58;;;;;;;5.78;4.43;;;30.40;93.90;;;;;;5134081;27;20216;-61
2023/06/16 12:30:33;;;;;;;5.55;4.32;;;30.50;93.60;;;;;;5123291;27;20197;-61
2023/06/16 12:33:09;;;;;;;7.60;4.28;;;30.30;94.30;;;;;;5108291;28;20279;-61
2023/06/16 12:35:37;;;;;;;6.15;4.20;;;30.20;95.30;;;;;;5128365;27;20717;-61
2023/06/16 12:38:07;;;;;;;6.75;4.10;;;30.10;93.40;;;;;;5123774;27;20219;-60
2023/06/16 12:40:35;;;;;;;5.75;4.13;;;29.90;94.70;;;;;;5134442;27;20559;-61
2023/06/16 12:43:22;;;;;;;5.38;4.20;;;30.10;95.50;;;;;;5121562;27;20214;-61
2023/06/16 12:45:53;;;;;;;4.43;4.03;;;30.40;93.30;;;;;;5114301;27;20219;-61
2023/06/16 12:48:21;;;;;;;9.98;4.40;;;30.60;92.40;;;;;;5108441;28;20604;-61
2023/06/16 12:50:50;;;;;;;6.45;4.40;;;30.90;92.50;;;;;;5108351;28;20193;-61
2023/06/16 12:53:20;;;;;;;5.50;4.15;;;31.00;92.30;;;;;;5115183;27;20235;-61